Elfrida, Arizona
Current Conditions -  °F | °C
As of 8:56 PM on Wednesday 28 Jan 2015 (Local Time) from KDUG Reporting Station
Clear Clear  
Wind Chill: 50°   Ceiling: Unl
Heat Index: 50°   Visibility: 10mi
Dew Point: 28°   Wind: 7mph
Humidity: 43%   Direction: 330°NNW
Pressure: 30.15"   Gusts: NA
Location:  31.69°N, 109.69°W
Report Text: KDUG 290356Z AUTO 33006KT 10SM CLR 10/M02 A3015 RMK AO2 SLP181 T01001022
Loading
Personal Weather Stations






























Interactive Weather Map New forecast layout! Learn more

10-Day Weather Forecast

Advertisements
Track Severe Weather on mobile